Магнитогорск, Россия

31 08, 2015 20:16 YEKT (GMT +0500)
Magnitogorsk | | Change Station
CLOSE
Current Station
Аэропорт
Location: Magnitogorsk,
Высота над уровнем моря: 1430 ft
Ближайшие Погодные Станции

В.н.у.м. 1430 ft 53.39 °N, 58.76 °E | Updated 16 minutes ago

Mostly Cloudy
Облачно
48 °F
Ощущается Как 48 °F
С
16
Ветер переменчевый Ветер от Западный

Сегодня
Высокий -- | Низкий -- °F
--% Вероятн. осадков
Вчера
Высокий -- | Низкий -- °F
Precip. -- дюймов
6:10 AM 7:56 PM
Убывающая луна, 95% visible
Давление 29.68 дюймов
Видимость 6.2 милиь
Облачность Облачно 4000 ft
Точка Росы 36 °F
Влажность воздуха 62%
Дождь 0.00 дюймов
Глубина снега Нет в наличии.
УФ 0 из 12
Пыльца Нет в наличии.
Качество воздуха Нет в наличии.
Flu Activity Нет в наличии.
METAR USCM 311500Z 27007MPS 9999 BKN040CB 09/02 Q1005 R01/090065 NOSIG RMK QFE716
Давление 29.68 дюймов
Видимость 6.2 милиь
Облачность Облачно 4000 ft
Точка Росы 36 °F
Влажность воздуха 62%
Дождь 0.00 дюймов
Глубина снега Нет в наличии.
УФ 0 из 12
Пыльца Нет в наличии.
Качество воздуха Нет в наличии.
Flu Activity Нет в наличии.
METAR USCM 311500Z 27007MPS 9999 BKN040CB 09/02 Q1005 R01/090065 NOSIG RMK QFE716

10-Day Weather Forecast

×

Almanac

Астрономические явления

Aug. 31, 2015 Восход Закат
Настоящее время
Гражданские сумерки
Навигационные сумерки
Астрономические сумерки
Луна
Длительность светового времени
Продолжительность Дня
Tomorrow will be .
, % of the Moon is Illuminated

Сегодняшние Экстремальные Показания

Country Highs Country Lows

Community

WunderPhotos

Upload Photos

1,851,278 фотографии загружены!

WunderBlogs® & News

Nearby

Качество воздуха

  Качество воздуха Индекс AQ Загрязнитель
Not available.

Глубина Снега

Station Depth Высота над уровнем моря

Сейсмическая активность

Город Distance Mag. Time & Date
Minimum magnitude displayed is 2.5.

Температура Прибрежных Вод

Место Температура

Stations

Ближайшие Погодные Станции

Местонахождение Темп. Температура с учетом ветра Точка Росы Влажность воздуха Ветер Precip. В.н.у.м. Последняя сводка Тип